sensor_id;sensor_type;location;lat;lon;timestamp;P1;durP1;ratioP1;P2;durP2;ratioP2
16760;SDS011;8498;52.516;13.790;2023-05-10T00:01:00;8.27;;;5.10;;
16760;SDS011;8498;52.516;13.790;2023-05-10T00:06:22;6.80;;;4.67;;
16760;SDS011;8498;52.516;13.790;2023-05-10T00:11:45;9.03;;;4.83;;
16760;SDS011;8498;52.516;13.790;2023-05-10T00:17:07;7.07;;;5.43;;
16760;SDS011;8498;52.516;13.790;2023-05-10T00:22:30;9.47;;;5.30;;
16760;SDS011;8498;52.516;13.790;2023-05-10T00:27:53;8.67;;;5.03;;
16760;SDS011;8498;52.516;13.790;2023-05-10T00:33:17;11.77;;;5.30;;
16760;SDS011;8498;52.516;13.790;2023-05-10T00:38:40;6.97;;;5.43;;
16760;SDS011;8498;52.516;13.790;2023-05-10T00:44:02;8.00;;;4.73;;
16760;SDS011;8498;52.516;13.790;2023-05-10T00:49:26;8.37;;;5.17;;
16760;SDS011;8498;52.516;13.790;2023-05-10T00:54:50;8.70;;;5.00;;
16760;SDS011;8498;52.516;13.790;2023-05-10T01:00:14;7.77;;;5.07;;
16760;SDS011;8498;52.516;13.790;2023-05-10T01:05:39;14.27;;;4.87;;
16760;SDS011;8498;52.516;13.790;2023-05-10T01:11:02;9.67;;;5.70;;
16760;SDS011;8498;52.516;13.790;2023-05-10T01:16:24;8.87;;;5.33;;
16760;SDS011;8498;52.516;13.790;2023-05-10T01:21:52;10.50;;;5.53;;
16760;SDS011;8498;52.516;13.790;2023-05-10T01:27:34;9.93;;;5.60;;
16760;SDS011;8498;52.516;13.790;2023-05-10T01:38:51;8.50;;;4.67;;
16760;SDS011;8498;52.516;13.790;2023-05-10T01:44:29;9.97;;;5.13;;
16760;SDS011;8498;52.516;13.790;2023-05-10T01:49:58;8.77;;;5.00;;
16760;SDS011;8498;52.516;13.790;2023-05-10T01:55:27;8.70;;;5.50;;
16760;SDS011;8498;52.516;13.790;2023-05-10T02:00:53;10.40;;;5.53;;
16760;SDS011;8498;52.516;13.790;2023-05-10T02:06:16;7.43;;;4.77;;
16760;SDS011;8498;52.516;13.790;2023-05-10T02:11:42;10.70;;;4.83;;
16760;SDS011;8498;52.516;13.790;2023-05-10T02:17:06;6.40;;;4.77;;
16760;SDS011;8498;52.516;13.790;2023-05-10T02:22:31;7.33;;;4.90;;
16760;SDS011;8498;52.516;13.790;2023-05-10T02:27:55;9.27;;;5.13;;
16760;SDS011;8498;52.516;13.790;2023-05-10T02:33:19;8.43;;;4.90;;
16760;SDS011;8498;52.516;13.790;2023-05-10T02:38:44;6.60;;;4.80;;
16760;SDS011;8498;52.516;13.790;2023-05-10T02:44:07;9.20;;;4.70;;
16760;SDS011;8498;52.516;13.790;2023-05-10T02:49:31;9.30;;;4.97;;
16760;SDS011;8498;52.516;13.790;2023-05-10T02:54:54;8.50;;;4.93;;
16760;SDS011;8498;52.516;13.790;2023-05-10T03:00:20;10.03;;;4.80;;
16760;SDS011;8498;52.516;13.790;2023-05-10T03:05:42;7.60;;;4.87;;
16760;SDS011;8498;52.516;13.790;2023-05-10T03:16:34;10.03;;;5.17;;
16760;SDS011;8498;52.516;13.790;2023-05-10T03:22:10;10.80;;;5.10;;
16760;SDS011;8498;52.516;13.790;2023-05-10T03:27:35;7.87;;;4.67;;
16760;SDS011;8498;52.516;13.790;2023-05-10T03:33:04;7.73;;;5.07;;
16760;SDS011;8498;52.516;13.790;2023-05-10T03:38:32;7.37;;;4.37;;
16760;SDS011;8498;52.516;13.790;2023-05-10T03:43:54;10.47;;;4.67;;
16760;SDS011;8498;52.516;13.790;2023-05-10T03:49:16;7.30;;;4.43;;
16760;SDS011;8498;52.516;13.790;2023-05-10T03:54:39;11.20;;;5.07;;
16760;SDS011;8498;52.516;13.790;2023-05-10T04:00:01;6.87;;;4.67;;
16760;SDS011;8498;52.516;13.790;2023-05-10T04:05:35;5.33;;;4.40;;
16760;SDS011;8498;52.516;13.790;2023-05-10T04:11:04;9.00;;;4.53;;
16760;SDS011;8498;52.516;13.790;2023-05-10T04:16:31;8.33;;;4.80;;
16760;SDS011;8498;52.516;13.790;2023-05-10T04:21:53;7.97;;;5.03;;
16760;SDS011;8498;52.516;13.790;2023-05-10T04:27:16;8.47;;;4.13;;
16760;SDS011;8498;52.516;13.790;2023-05-10T04:32:38;8.40;;;4.00;;
16760;SDS011;8498;52.516;13.790;2023-05-10T04:38:00;5.90;;;4.40;;
16760;SDS011;8498;52.516;13.790;2023-05-10T04:43:23;6.70;;;4.27;;
16760;SDS011;8498;52.516;13.790;2023-05-10T04:48:45;10.23;;;4.70;;
16760;SDS011;8498;52.516;13.790;2023-05-10T04:54:08;7.23;;;4.37;;
16760;SDS011;8498;52.516;13.790;2023-05-10T04:59:31;8.67;;;4.97;;
16760;SDS011;8498;52.516;13.790;2023-05-10T05:04:55;8.70;;;4.40;;
16760;SDS011;8498;52.516;13.790;2023-05-10T05:10:18;7.53;;;4.20;;
16760;SDS011;8498;52.516;13.790;2023-05-10T05:15:40;5.90;;;4.10;;
16760;SDS011;8498;52.516;13.790;2023-05-10T05:21:03;5.67;;;4.10;;
16760;SDS011;8498;52.516;13.790;2023-05-10T05:26:26;9.27;;;4.60;;
16760;SDS011;8498;52.516;13.790;2023-05-10T05:31:48;12.97;;;5.87;;
16760;SDS011;8498;52.516;13.790;2023-05-10T05:37:17;4.27;;;3.80;;
16760;SDS011;8498;52.516;13.790;2023-05-10T05:42:41;6.60;;;3.87;;
16760;SDS011;8498;52.516;13.790;2023-05-10T05:48:04;4.97;;;3.30;;
16760;SDS011;8498;52.516;13.790;2023-05-10T05:53:26;6.07;;;3.60;;
16760;SDS011;8498;52.516;13.790;2023-05-10T05:58:48;4.97;;;3.57;;
16760;SDS011;8498;52.516;13.790;2023-05-10T06:04:11;3.67;;;3.20;;
16760;SDS011;8498;52.516;13.790;2023-05-10T06:09:34;5.03;;;3.40;;
16760;SDS011;8498;52.516;13.790;2023-05-10T06:14:57;6.70;;;3.73;;
16760;SDS011;8498;52.516;13.790;2023-05-10T06:20:19;12.63;;;5.90;;
16760;SDS011;8498;52.516;13.790;2023-05-10T06:25:42;12.60;;;5.87;;
16760;SDS011;8498;52.516;13.790;2023-05-10T06:31:04;4.90;;;3.67;;
16760;SDS011;8498;52.516;13.790;2023-05-10T06:36:27;3.70;;;3.30;;
16760;SDS011;8498;52.516;13.790;2023-05-10T06:41:50;4.97;;;3.30;;
16760;SDS011;8498;52.516;13.790;2023-05-10T06:47:13;3.13;;;2.83;;
16760;SDS011;8498;52.516;13.790;2023-05-10T06:52:37;3.97;;;2.60;;
16760;SDS011;8498;52.516;13.790;2023-05-10T06:58:00;3.57;;;2.60;;
16760;SDS011;8498;52.516;13.790;2023-05-10T07:03:22;3.37;;;2.60;;
16760;SDS011;8498;52.516;13.790;2023-05-10T07:08:44;3.90;;;2.53;;
16760;SDS011;8498;52.516;13.790;2023-05-10T07:14:07;2.60;;;2.40;;
16760;SDS011;8498;52.516;13.790;2023-05-10T07:19:29;5.10;;;2.80;;
16760;SDS011;8498;52.516;13.790;2023-05-10T07:24:52;5.20;;;2.93;;
16760;SDS011;8498;52.516;13.790;2023-05-10T07:30:14;3.90;;;2.67;;
16760;SDS011;8498;52.516;13.790;2023-05-10T07:35:36;2.60;;;2.40;;
16760;SDS011;8498;52.516;13.790;2023-05-10T07:40:59;4.70;;;2.60;;
16760;SDS011;8498;52.516;13.790;2023-05-10T07:46:21;3.30;;;2.70;;
16760;SDS011;8498;52.516;13.790;2023-05-10T07:51:44;4.20;;;2.30;;
16760;SDS011;8498;52.516;13.790;2023-05-10T07:57:06;4.47;;;3.30;;
16760;SDS011;8498;52.516;13.790;2023-05-10T08:02:29;5.30;;;2.50;;
16760;SDS011;8498;52.516;13.790;2023-05-10T08:07:52;4.97;;;2.53;;
16760;SDS011;8498;52.516;13.790;2023-05-10T08:13:14;3.72;;;2.65;;
16760;SDS011;8498;52.516;13.790;2023-05-10T08:18:37;3.30;;;2.50;;
16760;SDS011;8498;52.516;13.790;2023-05-10T08:23:59;2.53;;;2.33;;
16760;SDS011;8498;52.516;13.790;2023-05-10T08:29:22;3.40;;;2.35;;
16760;SDS011;8498;52.516;13.790;2023-05-10T08:34:47;2.92;;;2.42;;
16760;SDS011;8498;52.516;13.790;2023-05-10T08:40:09;3.13;;;2.75;;
16760;SDS011;8498;52.516;13.790;2023-05-10T08:45:37;2.53;;;2.33;;
16760;SDS011;8498;52.516;13.790;2023-05-10T08:51:09;5.75;;;2.47;;
16760;SDS011;8498;52.516;13.790;2023-05-10T08:56:33;3.80;;;2.35;;
16760;SDS011;8498;52.516;13.790;2023-05-10T09:01:58;4.40;;;2.42;;
16760;SDS011;8498;52.516;13.790;2023-05-10T09:07:21;3.13;;;2.83;;
16760;SDS011;8498;52.516;13.790;2023-05-10T09:12:44;5.10;;;2.53;;
16760;SDS011;8498;52.516;13.790;2023-05-10T09:18:07;2.95;;;2.67;;
16760;SDS011;8498;52.516;13.790;2023-05-10T09:23:30;3.10;;;2.75;;
16760;SDS011;8498;52.516;13.790;2023-05-10T09:28:55;3.75;;;2.33;;
16760;SDS011;8498;52.516;13.790;2023-05-10T09:34:19;4.72;;;2.67;;
16760;SDS011;8498;52.516;13.790;2023-05-10T09:39:51;4.18;;;3.13;;
16760;SDS011;8498;52.516;13.790;2023-05-10T09:45:16;3.63;;;3.17;;
16760;SDS011;8498;52.516;13.790;2023-05-10T09:50:39;3.20;;;2.90;;
16760;SDS011;8498;52.516;13.790;2023-05-10T09:56:02;6.10;;;2.63;;
16760;SDS011;8498;52.516;13.790;2023-05-10T10:01:25;7.38;;;3.00;;
16760;SDS011;8498;52.516;13.790;2023-05-10T10:06:58;3.00;;;2.80;;
16760;SDS011;8498;52.516;13.790;2023-05-10T10:12:24;3.83;;;2.72;;
16760;SDS011;8498;52.516;13.790;2023-05-10T10:17:48;6.75;;;2.95;;
16760;SDS011;8498;52.516;13.790;2023-05-10T10:23:11;4.03;;;2.45;;
16760;SDS011;8498;52.516;13.790;2023-05-10T10:34:21;5.68;;;2.67;;
16760;SDS011;8498;52.516;13.790;2023-05-10T10:39:51;3.00;;;2.70;;
16760;SDS011;8498;52.516;13.790;2023-05-10T10:45:14;3.67;;;2.58;;
16760;SDS011;8498;52.516;13.790;2023-05-10T10:50:45;4.13;;;3.05;;
16760;SDS011;8498;52.516;13.790;2023-05-10T10:56:12;6.60;;;3.05;;
16760;SDS011;8498;52.516;13.790;2023-05-10T11:01:37;3.65;;;2.60;;
16760;SDS011;8498;52.516;13.790;2023-05-10T11:07:26;7.57;;;2.72;;
16760;SDS011;8498;52.516;13.790;2023-05-10T11:18:24;2.13;;;1.90;;
16760;SDS011;8498;52.516;13.790;2023-05-10T11:23:57;3.33;;;2.67;;
16760;SDS011;8498;52.516;13.790;2023-05-10T11:29:28;4.78;;;2.33;;
16760;SDS011;8498;52.516;13.790;2023-05-10T11:34:50;6.78;;;2.47;;
16760;SDS011;8498;52.516;13.790;2023-05-10T11:40:12;3.60;;;2.40;;
16760;SDS011;8498;52.516;13.790;2023-05-10T11:45:41;2.60;;;2.40;;
16760;SDS011;8498;52.516;13.790;2023-05-10T11:51:03;3.30;;;1.98;;
16760;SDS011;8498;52.516;13.790;2023-05-10T11:56:26;5.18;;;2.40;;
16760;SDS011;8498;52.516;13.790;2023-05-10T12:01:48;5.03;;;2.72;;
16760;SDS011;8498;52.516;13.790;2023-05-10T12:07:11;3.90;;;2.20;;
16760;SDS011;8498;52.516;13.790;2023-05-10T12:12:39;3.47;;;2.00;;
16760;SDS011;8498;52.516;13.790;2023-05-10T12:18:10;1.98;;;1.88;;
16760;SDS011;8498;52.516;13.790;2023-05-10T12:23:34;4.05;;;2.00;;
16760;SDS011;8498;52.516;13.790;2023-05-10T12:29:12;4.40;;;2.03;;
16760;SDS011;8498;52.516;13.790;2023-05-10T12:34:38;2.80;;;2.22;;
16760;SDS011;8498;52.516;13.790;2023-05-10T12:40:01;2.30;;;2.10;;
16760;SDS011;8498;52.516;13.790;2023-05-10T12:45:24;6.00;;;2.45;;
16760;SDS011;8498;52.516;13.790;2023-05-10T12:50:47;11.23;;;2.30;;
16760;SDS011;8498;52.516;13.790;2023-05-10T12:56:10;1.90;;;1.80;;
16760;SDS011;8498;52.516;13.790;2023-05-10T13:01:33;4.22;;;1.80;;
16760;SDS011;8498;52.516;13.790;2023-05-10T13:06:55;2.70;;;2.13;;
16760;SDS011;8498;52.516;13.790;2023-05-10T13:12:20;6.25;;;2.58;;
16760;SDS011;8498;52.516;13.790;2023-05-10T13:17:44;3.63;;;2.13;;
16760;SDS011;8498;52.516;13.790;2023-05-10T13:23:07;2.63;;;1.83;;
16760;SDS011;8498;52.516;13.790;2023-05-10T13:28:29;2.22;;;2.08;;
16760;SDS011;8498;52.516;13.790;2023-05-10T13:33:52;1.90;;;1.75;;
16760;SDS011;8498;52.516;13.790;2023-05-10T13:39:15;2.83;;;1.77;;
16760;SDS011;8498;52.516;13.790;2023-05-10T13:44:37;2.17;;;1.83;;
16760;SDS011;8498;52.516;13.790;2023-05-10T13:50:00;4.85;;;1.83;;
16760;SDS011;8498;52.516;13.790;2023-05-10T13:55:23;1.77;;;1.67;;
16760;SDS011;8498;52.516;13.790;2023-05-10T14:00:45;1.88;;;1.77;;
16760;SDS011;8498;52.516;13.790;2023-05-10T14:06:07;2.95;;;2.15;;
16760;SDS011;8498;52.516;13.790;2023-05-10T14:11:30;5.10;;;1.90;;
16760;SDS011;8498;52.516;13.790;2023-05-10T14:16:52;3.13;;;1.63;;
16760;SDS011;8498;52.516;13.790;2023-05-10T14:22:15;1.88;;;1.77;;
16760;SDS011;8498;52.516;13.790;2023-05-10T14:27:37;3.75;;;2.05;;
16760;SDS011;8498;52.516;13.790;2023-05-10T14:33:00;4.15;;;2.25;;
16760;SDS011;8498;52.516;13.790;2023-05-10T14:38:24;3.60;;;1.70;;
16760;SDS011;8498;52.516;13.790;2023-05-10T14:43:47;1.95;;;1.60;;
16760;SDS011;8498;52.516;13.790;2023-05-10T14:49:09;2.05;;;1.95;;
16760;SDS011;8498;52.516;13.790;2023-05-10T14:54:31;3.72;;;2.05;;
16760;SDS011;8498;52.516;13.790;2023-05-10T14:59:55;2.15;;;2.05;;
16760;SDS011;8498;52.516;13.790;2023-05-10T15:05:19;1.90;;;1.80;;
16760;SDS011;8498;52.516;13.790;2023-05-10T15:10:42;2.45;;;1.60;;
16760;SDS011;8498;52.516;13.790;2023-05-10T15:16:04;2.55;;;2.20;;
16760;SDS011;8498;52.516;13.790;2023-05-10T15:21:27;4.10;;;2.50;;
16760;SDS011;8498;52.516;13.790;2023-05-10T15:26:49;7.43;;;3.35;;
16760;SDS011;8498;52.516;13.790;2023-05-10T15:32:11;6.72;;;2.35;;
16760;SDS011;8498;52.516;13.790;2023-05-10T15:37:34;2.50;;;2.30;;
16760;SDS011;8498;52.516;13.790;2023-05-10T15:42:57;2.35;;;2.10;;
16760;SDS011;8498;52.516;13.790;2023-05-10T15:48:19;2.45;;;2.25;;
16760;SDS011;8498;52.516;13.790;2023-05-10T15:53:42;2.30;;;2.05;;
16760;SDS011;8498;52.516;13.790;2023-05-10T15:59:24;2.13;;;2.03;;
16760;SDS011;8498;52.516;13.790;2023-05-10T16:04:46;5.07;;;2.50;;
16760;SDS011;8498;52.516;13.790;2023-05-10T16:10:09;6.80;;;2.20;;
16760;SDS011;8498;52.516;13.790;2023-05-10T16:15:32;1.98;;;1.77;;
16760;SDS011;8498;52.516;13.790;2023-05-10T16:20:55;7.18;;;1.92;;
16760;SDS011;8498;52.516;13.790;2023-05-10T16:26:17;2.22;;;2.03;;
16760;SDS011;8498;52.516;13.790;2023-05-10T16:31:40;5.70;;;2.40;;
16760;SDS011;8498;52.516;13.790;2023-05-10T16:37:02;4.20;;;2.35;;
16760;SDS011;8498;52.516;13.790;2023-05-10T16:42:25;2.53;;;2.33;;
16760;SDS011;8498;52.516;13.790;2023-05-10T16:47:49;3.70;;;2.75;;
16760;SDS011;8498;52.516;13.790;2023-05-10T16:53:11;5.85;;;2.65;;
16760;SDS011;8498;52.516;13.790;2023-05-10T16:58:37;3.30;;;2.38;;
16760;SDS011;8498;52.516;13.790;2023-05-10T17:03:59;2.78;;;2.15;;
16760;SDS011;8498;52.516;13.790;2023-05-10T17:09:21;4.28;;;2.38;;
16760;SDS011;8498;52.516;13.790;2023-05-10T17:14:44;5.53;;;2.25;;
16760;SDS011;8498;52.516;13.790;2023-05-10T17:20:07;3.63;;;2.40;;
16760;SDS011;8498;52.516;13.790;2023-05-10T17:25:29;3.95;;;2.40;;
16760;SDS011;8498;52.516;13.790;2023-05-10T17:30:55;2.38;;;2.20;;
16760;SDS011;8498;52.516;13.790;2023-05-10T17:36:19;3.05;;;2.20;;
16760;SDS011;8498;52.516;13.790;2023-05-10T17:41:41;2.60;;;2.40;;
16760;SDS011;8498;52.516;13.790;2023-05-10T17:47:03;5.65;;;3.10;;
16760;SDS011;8498;52.516;13.790;2023-05-10T17:52:27;7.40;;;4.13;;
16760;SDS011;8498;52.516;13.790;2023-05-10T17:57:53;3.75;;;3.45;;
16760;SDS011;8498;52.516;13.790;2023-05-10T18:03:19;8.20;;;4.13;;
16760;SDS011;8498;52.516;13.790;2023-05-10T18:08:42;4.10;;;3.78;;
16760;SDS011;8498;52.516;13.790;2023-05-10T18:14:04;3.90;;;3.55;;
16760;SDS011;8498;52.516;13.790;2023-05-10T18:19:27;5.15;;;4.20;;
16760;SDS011;8498;52.516;13.790;2023-05-10T18:24:49;6.03;;;4.40;;
16760;SDS011;8498;52.516;13.790;2023-05-10T18:30:12;8.85;;;4.40;;
16760;SDS011;8498;52.516;13.790;2023-05-10T18:35:37;4.45;;;4.05;;
16760;SDS011;8498;52.516;13.790;2023-05-10T18:41:01;7.53;;;4.45;;
16760;SDS011;8498;52.516;13.790;2023-05-10T18:46:24;5.80;;;4.40;;
16760;SDS011;8498;52.516;13.790;2023-05-10T18:51:46;6.10;;;3.92;;
16760;SDS011;8498;52.516;13.790;2023-05-10T18:57:08;4.68;;;4.18;;
16760;SDS011;8498;52.516;13.790;2023-05-10T19:02:31;6.57;;;4.22;;
16760;SDS011;8498;52.516;13.790;2023-05-10T19:07:53;7.05;;;4.75;;
16760;SDS011;8498;52.516;13.790;2023-05-10T19:13:16;8.05;;;4.47;;
16760;SDS011;8498;52.516;13.790;2023-05-10T19:18:38;9.27;;;4.25;;
16760;SDS011;8498;52.516;13.790;2023-05-10T19:24:01;6.25;;;5.50;;
16760;SDS011;8498;52.516;13.790;2023-05-10T19:29:24;11.25;;;5.18;;
16760;SDS011;8498;52.516;13.790;2023-05-10T19:34:48;8.52;;;5.05;;
16760;SDS011;8498;52.516;13.790;2023-05-10T19:40:12;5.82;;;4.90;;
16760;SDS011;8498;52.516;13.790;2023-05-10T19:45:36;5.28;;;4.78;;
16760;SDS011;8498;52.516;13.790;2023-05-10T19:51:03;7.40;;;4.90;;
16760;SDS011;8498;52.516;13.790;2023-05-10T19:56:30;8.18;;;4.80;;
16760;SDS011;8498;52.516;13.790;2023-05-10T20:01:52;7.80;;;4.90;;
16760;SDS011;8498;52.516;13.790;2023-05-10T20:07:14;8.68;;;5.00;;
16760;SDS011;8498;52.516;13.790;2023-05-10T20:12:37;6.75;;;5.20;;
16760;SDS011;8498;52.516;13.790;2023-05-10T20:17:59;5.40;;;4.90;;
16760;SDS011;8498;52.516;13.790;2023-05-10T20:23:22;10.30;;;4.90;;
16760;SDS011;8498;52.516;13.790;2023-05-10T20:28:44;7.97;;;5.60;;
16760;SDS011;8498;52.516;13.790;2023-05-10T20:34:06;11.02;;;5.68;;
16760;SDS011;8498;52.516;13.790;2023-05-10T20:39:29;5.97;;;5.00;;
16760;SDS011;8498;52.516;13.790;2023-05-10T20:44:51;6.43;;;5.13;;
16760;SDS011;8498;52.516;13.790;2023-05-10T20:50:13;6.65;;;5.40;;
16760;SDS011;8498;52.516;13.790;2023-05-10T20:55:36;10.18;;;5.30;;
16760;SDS011;8498;52.516;13.790;2023-05-10T21:00:59;6.82;;;5.55;;
16760;SDS011;8498;52.516;13.790;2023-05-10T21:06:23;8.18;;;5.60;;
16760;SDS011;8498;52.516;13.790;2023-05-10T21:11:45;7.47;;;5.63;;
16760;SDS011;8498;52.516;13.790;2023-05-10T21:17:08;7.50;;;5.25;;
16760;SDS011;8498;52.516;13.790;2023-05-10T21:22:30;8.88;;;5.47;;
16760;SDS011;8498;52.516;13.790;2023-05-10T21:27:52;6.47;;;5.35;;
16760;SDS011;8498;52.516;13.790;2023-05-10T21:33:15;7.68;;;5.32;;
16760;SDS011;8498;52.516;13.790;2023-05-10T21:38:37;8.93;;;5.97;;
16760;SDS011;8498;52.516;13.790;2023-05-10T21:44:00;8.15;;;5.63;;
16760;SDS011;8498;52.516;13.790;2023-05-10T21:49:22;7.05;;;6.03;;
16760;SDS011;8498;52.516;13.790;2023-05-10T21:54:45;10.77;;;6.47;;
16760;SDS011;8498;52.516;13.790;2023-05-10T22:00:07;8.32;;;5.82;;
16760;SDS011;8498;52.516;13.790;2023-05-10T22:05:32;10.88;;;6.07;;
16760;SDS011;8498;52.516;13.790;2023-05-10T22:10:55;8.13;;;6.35;;
16760;SDS011;8498;52.516;13.790;2023-05-10T22:16:17;8.33;;;6.03;;
16760;SDS011;8498;52.516;13.790;2023-05-10T22:21:40;8.23;;;6.50;;
16760;SDS011;8498;52.516;13.790;2023-05-10T22:27:02;11.32;;;6.65;;
16760;SDS011;8498;52.516;13.790;2023-05-10T22:32:25;7.07;;;5.97;;
16760;SDS011;8498;52.516;13.790;2023-05-10T22:37:48;11.47;;;6.37;;
16760;SDS011;8498;52.516;13.790;2023-05-10T22:43:10;12.57;;;6.63;;
16760;SDS011;8498;52.516;13.790;2023-05-10T22:48:33;9.20;;;6.33;;
16760;SDS011;8498;52.516;13.790;2023-05-10T22:53:55;11.93;;;6.60;;
16760;SDS011;8498;52.516;13.790;2023-05-10T22:59:18;9.60;;;6.10;;
16760;SDS011;8498;52.516;13.790;2023-05-10T23:04:41;7.70;;;5.97;;
16760;SDS011;8498;52.516;13.790;2023-05-10T23:10:03;9.20;;;6.67;;
16760;SDS011;8498;52.516;13.790;2023-05-10T23:15:26;12.63;;;6.83;;
16760;SDS011;8498;52.516;13.790;2023-05-10T23:20:48;9.43;;;7.00;;
16760;SDS011;8498;52.516;13.790;2023-05-10T23:26:11;9.93;;;7.27;;
16760;SDS011;8498;52.516;13.790;2023-05-10T23:31:33;11.93;;;7.27;;
16760;SDS011;8498;52.516;13.790;2023-05-10T23:36:55;10.83;;;7.50;;
16760;SDS011;8498;52.516;13.790;2023-05-10T23:42:18;10.33;;;6.80;;
16760;SDS011;8498;52.516;13.790;2023-05-10T23:47:41;16.37;;;6.77;;
16760;SDS011;8498;52.516;13.790;2023-05-10T23:53:03;11.63;;;7.30;;
16760;SDS011;8498;52.516;13.790;2023-05-10T23:58:25;11.83;;;7.07;;
